createdAt,value
2023-04-01T00:00:09.607Z,15.40
2023-04-01T00:03:04.477Z,14.40
2023-04-01T00:05:37.258Z,15.00
2023-04-01T00:08:09.766Z,13.10
2023-04-01T00:10:44.111Z,11.40
2023-04-01T00:13:16.901Z,12.40
2023-04-01T00:15:49.704Z,12.10
2023-04-01T00:18:22.118Z,13.00
2023-04-01T00:20:55.106Z,12.20
2023-04-01T00:23:27.515Z,13.80
2023-04-01T00:26:01.143Z,12.60
2023-04-01T00:28:33.553Z,13.70
2023-04-01T00:31:10.741Z,14.60
2023-04-01T00:33:43.555Z,15.10
2023-04-01T00:36:19.496Z,15.70
2023-04-01T00:38:52.811Z,16.70
2023-04-01T00:41:27.237Z,20.00
2023-04-01T00:44:19.186Z,24.40
2023-04-01T00:46:53.727Z,15.90
2023-04-01T00:49:29.107Z,16.00
2023-04-01T00:52:03.829Z,16.40
2023-04-01T00:54:36.784Z,13.70
2023-04-01T00:57:12.101Z,14.30
2023-04-01T00:59:47.475Z,12.80
2023-04-01T01:02:20.611Z,14.90
2023-04-01T01:04:53.146Z,15.00
2023-04-01T01:07:35.013Z,21.10
2023-04-01T01:10:13.658Z,22.60
2023-04-01T01:12:53.581Z,21.90
2023-04-01T01:15:33.323Z,19.20
2023-04-01T01:18:15.026Z,16.50
2023-04-01T01:21:32.279Z,17.00
2023-04-01T01:24:17.081Z,20.60
2023-04-01T01:26:56.777Z,31.60
2023-04-01T01:29:43.768Z,35.30
2023-04-01T01:32:36.651Z,27.00
2023-04-01T01:35:26.955Z,23.00
2023-04-01T01:38:02.064Z,16.90
2023-04-01T01:40:36.760Z,16.40
2023-04-01T01:43:15.032Z,17.60
2023-04-01T01:45:52.500Z,17.10
2023-04-01T01:48:26.887Z,18.40
2023-04-01T01:50:59.650Z,16.70
2023-04-01T01:53:32.279Z,16.20
2023-04-01T01:56:05.260Z,13.90
2023-04-01T01:58:47.670Z,13.20
2023-04-01T02:01:26.676Z,12.30
2023-04-01T02:04:00.532Z,13.20
2023-04-01T02:06:39.299Z,13.40
2023-04-01T02:09:12.997Z,13.20
2023-04-01T02:11:48.984Z,13.10
2023-04-01T02:14:24.825Z,12.60
2023-04-01T02:16:59.831Z,11.90
2023-04-01T02:19:38.849Z,14.10
2023-04-01T02:22:16.722Z,13.60
2023-04-01T02:24:51.358Z,15.40
2023-04-01T02:27:24.190Z,14.80
2023-04-01T02:29:56.905Z,14.10
2023-04-01T02:32:31.816Z,12.60
2023-04-01T02:37:40.421Z,13.70
2023-04-01T02:40:16.142Z,13.10
2023-04-01T02:42:48.842Z,14.70
2023-04-01T02:45:21.679Z,15.30
2023-04-01T02:47:54.030Z,13.70
2023-04-01T02:50:26.426Z,13.70
2023-04-01T02:52:58.726Z,12.90
2023-04-01T02:55:31.656Z,13.50
2023-04-01T02:58:04.325Z,11.90
2023-04-01T03:00:37.009Z,12.50
2023-04-01T03:03:10.043Z,11.70
2023-04-01T03:05:42.686Z,18.60
2023-04-01T03:08:15.085Z,22.50
2023-04-01T03:10:47.479Z,39.40
2023-04-01T03:13:19.804Z,66.60
2023-04-01T03:15:52.239Z,61.00
2023-04-01T03:18:24.974Z,24.30
2023-04-01T03:20:58.200Z,14.90
2023-04-01T03:23:30.497Z,10.80
2023-04-01T03:26:03.000Z,19.20
2023-04-01T03:28:35.435Z,17.00
2023-04-01T03:31:08.401Z,12.90
2023-04-01T03:33:44.888Z,12.80
2023-04-01T03:36:17.349Z,10.90
2023-04-01T03:38:49.953Z,10.70
2023-04-01T03:41:25.288Z,9.80
2023-04-01T03:43:58.425Z,9.40
2023-04-01T03:46:30.950Z,11.30
2023-04-01T03:49:03.504Z,11.80
2023-04-01T03:51:35.807Z,11.10
2023-04-01T03:54:08.571Z,9.70
2023-04-01T03:56:41.526Z,10.80
2023-04-01T03:59:15.204Z,10.30
2023-04-01T04:01:48.356Z,9.50
2023-04-01T04:04:21.161Z,9.50
2023-04-01T04:06:53.886Z,8.70
2023-04-01T04:09:27.174Z,7.90
2023-04-01T04:12:00.132Z,10.00
2023-04-01T04:14:32.633Z,11.80
2023-04-01T04:17:06.576Z,11.00
2023-04-01T04:19:39.005Z,11.50
2023-04-01T04:22:11.589Z,10.90
2023-04-01T04:24:44.562Z,12.30
2023-04-01T04:27:19.108Z,14.80
2023-04-01T04:30:00.163Z,17.20
2023-04-01T04:32:33.727Z,17.40
2023-04-01T04:35:07.551Z,13.20
2023-04-01T04:37:40.090Z,13.30
2023-04-01T04:40:13.812Z,17.70
2023-04-01T04:42:47.625Z,12.70
2023-04-01T04:45:21.029Z,12.50
2023-04-01T04:47:59.563Z,16.10
2023-04-01T04:50:31.862Z,20.50
2023-04-01T04:53:04.482Z,34.60
2023-04-01T04:55:37.270Z,47.90
2023-04-01T04:58:23.795Z,54.90
2023-04-01T05:00:56.544Z,60.50
2023-04-01T05:03:33.230Z,53.10
2023-04-01T05:06:06.877Z,50.70
2023-04-01T05:08:40.499Z,34.60
2023-04-01T05:11:14.795Z,28.00
2023-04-01T05:13:48.879Z,21.90
2023-04-01T05:16:22.392Z,20.50
2023-04-01T05:18:54.723Z,28.80
2023-04-01T05:21:28.285Z,39.10
2023-04-01T05:24:01.559Z,48.70
2023-04-01T05:26:34.152Z,39.10
2023-04-01T05:29:06.924Z,34.70
2023-04-01T05:31:39.688Z,39.20
2023-04-01T05:34:12.203Z,32.20
2023-04-01T05:36:44.620Z,22.30
2023-04-01T05:39:16.989Z,36.00
2023-04-01T05:41:49.845Z,19.60
2023-04-01T05:44:22.245Z,14.20
2023-04-01T05:46:54.537Z,13.30
2023-04-01T05:49:28.997Z,15.10
2023-04-01T05:52:01.553Z,15.40
2023-04-01T05:54:35.207Z,13.60
2023-04-01T05:57:08.311Z,13.40
2023-04-01T05:59:40.937Z,16.10
2023-04-01T06:02:14.178Z,15.40
2023-04-01T06:04:46.985Z,16.80
2023-04-01T06:07:20.650Z,16.30
2023-04-01T06:09:52.949Z,15.50
2023-04-01T06:12:45.916Z,14.30
2023-04-01T06:15:37.478Z,19.50
2023-04-01T06:18:42.467Z,25.30
2023-04-01T06:21:31.604Z,75.90
2023-04-01T06:24:23.221Z,85.40
2023-04-01T06:27:03.314Z,95.60
2023-04-01T06:29:58.560Z,98.10
2023-04-01T06:32:53.651Z,102.00
2023-04-01T06:35:38.816Z,92.40
2023-04-01T06:41:04.505Z,31.50
2023-04-01T06:43:49.709Z,36.30
2023-04-01T06:46:47.975Z,28.50
2023-04-01T06:49:52.242Z,27.40
2023-04-01T06:52:51.345Z,25.60
2023-04-01T06:55:48.729Z,49.20
2023-04-01T06:58:38.142Z,29.20
2023-04-01T07:01:16.415Z,25.80
2023-04-01T07:03:55.006Z,29.80
2023-04-01T07:06:33.998Z,33.50
2023-04-01T07:09:13.059Z,39.50
2023-04-01T07:12:26.159Z,54.10
2023-04-01T07:26:57.704Z,37.40
2023-04-01T07:29:33.511Z,36.80
2023-04-01T07:32:22.418Z,30.10
2023-04-01T07:35:05.857Z,52.20
2023-04-01T07:37:48.626Z,67.00
2023-04-01T07:40:32.500Z,46.00
2023-04-01T07:43:43.795Z,34.70
2023-04-01T07:46:42.718Z,37.20
2023-04-01T07:49:19.892Z,27.10
2023-04-01T07:51:59.877Z,17.90
2023-04-01T07:54:41.145Z,21.40
2023-04-01T07:57:20.347Z,18.90
2023-04-01T08:00:05.919Z,22.50
2023-04-01T08:03:05.809Z,28.40
2023-04-01T08:05:49.715Z,27.00
2023-04-01T08:08:36.881Z,21.00
2023-04-01T08:11:44.483Z,23.20
2023-04-01T08:14:48.705Z,20.00
2023-04-01T08:17:48.684Z,25.20
2023-04-01T08:20:35.538Z,23.00
2023-04-01T08:23:14.272Z,28.00
2023-04-01T08:25:53.622Z,19.70
2023-04-01T08:28:32.751Z,27.80
2023-04-01T08:31:11.835Z,34.40
2023-04-01T08:33:46.747Z,28.10
2023-04-01T08:36:23.290Z,38.80
2023-04-01T08:39:15.588Z,30.80
2023-04-01T08:42:23.883Z,29.80
2023-04-01T08:45:22.788Z,25.30
2023-04-01T08:48:30.335Z,32.70
2023-04-01T08:51:39.738Z,29.70
2023-04-01T08:54:33.356Z,31.40
2023-04-01T08:57:17.807Z,23.90
2023-04-01T09:00:24.254Z,25.80
2023-04-01T09:03:41.261Z,37.50
2023-04-01T09:06:31.480Z,30.10
2023-04-01T09:09:27.780Z,18.10
2023-04-01T09:12:34.745Z,32.20
2023-04-01T09:15:23.066Z,18.60
2023-04-01T09:18:11.535Z,18.20
2023-04-01T09:20:55.636Z,26.90
2023-04-01T09:23:47.215Z,19.50
2023-04-01T09:26:46.686Z,24.00
2023-04-01T09:29:33.545Z,30.30
2023-04-01T09:32:32.601Z,19.70
2023-04-01T09:35:25.584Z,46.20
2023-04-01T09:38:20.121Z,31.40
2023-04-01T09:40:58.849Z,31.40
2023-04-01T09:44:06.538Z,39.10
2023-04-01T09:47:03.470Z,20.90
2023-04-01T09:49:52.769Z,22.60
2023-04-01T09:52:41.064Z,14.50
2023-04-01T09:55:51.061Z,17.90
2023-04-01T09:59:21.070Z,19.10
2023-04-01T10:02:56.994Z,19.10
2023-04-01T10:06:13.394Z,26.00
2023-04-01T10:09:14.791Z,23.40
2023-04-01T10:12:24.779Z,27.70
2023-04-01T10:15:23.907Z,23.40
2023-04-01T10:18:14.845Z,15.80
2023-04-01T10:21:13.741Z,14.80
2023-04-01T10:24:17.882Z,16.90
2023-04-01T10:27:12.408Z,20.30
2023-04-01T10:30:31.152Z,19.40
2023-04-01T10:33:32.671Z,18.80
2023-04-01T10:36:31.127Z,18.50
2023-04-01T10:39:37.470Z,29.70
2023-04-01T10:42:58.239Z,17.90
2023-04-01T10:46:04.193Z,18.10
2023-04-01T10:49:15.870Z,19.90
2023-04-01T10:52:24.109Z,41.40
2023-04-01T10:55:38.790Z,24.10
2023-04-01T10:59:03.388Z,19.80
2023-04-01T11:02:47.910Z,23.40
2023-04-01T11:06:21.912Z,18.10
2023-04-01T11:09:17.590Z,15.70
2023-04-01T11:15:33.438Z,20.50
2023-04-01T11:18:31.813Z,16.50
2023-04-01T11:21:26.646Z,16.90
2023-04-01T11:27:04.201Z,23.30
2023-04-01T11:30:09.561Z,24.70
2023-04-01T11:32:52.865Z,72.50
2023-04-01T11:35:42.321Z,26.70
2023-04-01T11:38:40.854Z,16.40
2023-04-01T11:41:58.855Z,38.90
2023-04-01T11:45:01.430Z,44.30
2023-04-01T11:48:11.756Z,479.90
2023-04-01T11:50:56.348Z,38.20
2023-04-01T11:53:39.318Z,32.00
2023-04-01T11:56:26.923Z,23.50
2023-04-01T11:59:20.567Z,21.50
2023-04-01T12:02:04.268Z,45.60
2023-04-01T12:05:00.622Z,36.30
2023-04-01T12:07:54.038Z,26.20
2023-04-01T12:10:35.960Z,28.90
2023-04-01T12:13:17.528Z,30.40
2023-04-01T12:16:04.149Z,28.30
2023-04-01T12:18:43.433Z,30.00
2023-04-01T12:21:27.712Z,31.70
2023-04-01T12:24:27.665Z,46.10
2023-04-01T12:27:14.836Z,33.40
2023-04-01T12:30:04.634Z,26.30
2023-04-01T12:32:44.257Z,27.10
2023-04-01T12:35:23.966Z,24.10
2023-04-01T12:38:12.907Z,28.90
2023-04-01T12:40:59.882Z,33.30
2023-04-01T12:43:58.732Z,42.30
2023-04-01T12:46:41.848Z,333.00
2023-04-01T12:49:45.449Z,51.80
2023-04-01T12:52:21.168Z,18.50
2023-04-01T12:55:25.871Z,26.70
2023-04-01T12:58:19.744Z,22.00
2023-04-01T13:01:04.284Z,29.60
2023-04-01T13:03:51.520Z,30.60
2023-04-01T13:06:52.655Z,45.20
2023-04-01T13:09:52.047Z,27.50
2023-04-01T13:13:01.215Z,25.50
2023-04-01T13:15:43.249Z,26.50
2023-04-01T13:18:26.417Z,26.10
2023-04-01T13:21:08.260Z,31.40
2023-04-01T13:23:58.060Z,18.80
2023-04-01T13:26:37.180Z,28.50
2023-04-01T13:29:16.760Z,58.60
2023-04-01T13:32:07.296Z,45.20
2023-04-01T13:34:56.544Z,28.30
2023-04-01T13:37:46.380Z,28.10
2023-04-01T13:40:28.622Z,25.80
2023-04-01T13:43:05.236Z,22.50
2023-04-01T13:45:57.504Z,33.90
2023-04-01T13:48:44.076Z,45.60
2023-04-01T13:51:32.565Z,30.10
2023-04-01T13:54:25.125Z,29.40
2023-04-01T13:57:10.745Z,47.30
2023-04-01T14:00:02.517Z,51.50
2023-04-01T14:03:14.107Z,48.10
2023-04-01T14:06:04.205Z,112.10
2023-04-01T14:08:53.718Z,101.00
2023-04-01T14:11:34.780Z,58.60
2023-04-01T14:14:18.845Z,68.00
2023-04-01T14:17:17.860Z,57.90
2023-04-01T14:20:05.172Z,50.90
2023-04-01T14:22:46.605Z,37.20
2023-04-01T14:25:43.583Z,40.60
2023-04-01T14:28:27.627Z,50.90
2023-04-01T14:31:17.500Z,53.00
2023-04-01T14:34:00.669Z,134.30
2023-04-01T14:37:03.574Z,76.50
2023-04-01T14:39:58.736Z,57.10
2023-04-01T14:42:51.364Z,36.70
2023-04-01T14:45:53.193Z,82.70
2023-04-01T14:48:34.473Z,39.90
2023-04-01T14:51:21.060Z,45.00
2023-04-01T14:54:07.028Z,88.20
2023-04-01T14:56:46.004Z,77.70
2023-04-01T14:59:31.748Z,42.40
2023-04-01T15:02:16.361Z,46.20
2023-04-01T15:05:08.279Z,45.30
2023-04-01T15:08:13.101Z,43.70
2023-04-01T15:11:23.886Z,115.40
2023-04-01T15:14:19.678Z,57.70
2023-04-01T15:17:07.463Z,40.20
2023-04-01T15:19:50.965Z,33.10
2023-04-01T15:22:49.648Z,34.80
2023-04-01T15:25:38.484Z,54.80
2023-04-01T15:28:23.381Z,69.10
2023-04-01T15:31:04.669Z,54.90
2023-04-01T15:33:51.334Z,28.60
2023-04-01T15:36:36.256Z,35.80
2023-04-01T15:39:16.500Z,27.70
2023-04-01T15:42:00.879Z,37.50
2023-04-01T15:44:48.985Z,36.80
2023-04-01T15:47:39.670Z,29.80
2023-04-01T15:53:33.822Z,27.40
2023-04-01T15:56:22.861Z,19.80
2023-04-01T15:59:13.672Z,20.20
2023-04-01T16:01:53.865Z,19.40
2023-04-01T16:04:42.639Z,16.70
2023-04-01T16:07:32.946Z,20.40
2023-04-01T16:10:19.820Z,14.90
2023-04-01T16:13:06.380Z,52.20
2023-04-01T16:15:47.527Z,61.00
2023-04-01T16:18:33.236Z,74.80
2023-04-01T16:21:11.376Z,55.50
2023-04-01T16:23:50.669Z,63.00
2023-04-01T16:26:28.776Z,84.50
2023-04-01T16:29:13.980Z,82.70
2023-04-01T16:31:56.064Z,41.20
2023-04-01T16:34:37.460Z,46.00
2023-04-01T16:37:16.707Z,44.90
2023-04-01T16:39:55.108Z,31.00
2023-04-01T16:42:42.571Z,30.40
2023-04-01T16:45:27.857Z,28.90
2023-04-01T16:50:47.807Z,21.20
2023-04-01T16:53:24.723Z,27.20
2023-04-01T16:56:06.649Z,38.70
2023-04-01T16:58:42.116Z,27.60
2023-04-01T17:01:18.952Z,34.10
2023-04-01T17:03:55.677Z,40.80
2023-04-01T17:06:40.368Z,22.00
2023-04-01T17:09:27.742Z,24.00
2023-04-01T17:12:11.363Z,25.10
2023-04-01T17:14:52.396Z,28.80
2023-04-01T17:17:43.701Z,43.20
2023-04-01T17:20:37.189Z,32.90
2023-04-01T17:23:21.403Z,49.90
2023-04-01T17:26:26.935Z,55.80
2023-04-01T17:29:08.133Z,39.50
2023-04-01T17:31:54.825Z,47.00
2023-04-01T17:34:41.389Z,27.70
2023-04-01T17:37:32.990Z,28.20
2023-04-01T17:40:22.454Z,30.60
2023-04-01T17:43:01.100Z,25.60
2023-04-01T17:45:43.825Z,22.00
2023-04-01T17:48:26.584Z,33.10
2023-04-01T17:51:19.477Z,22.20
2023-04-01T17:54:02.019Z,22.60
2023-04-01T17:56:47.493Z,30.70
2023-04-01T17:59:26.465Z,36.00
2023-04-01T18:02:09.594Z,28.50
2023-04-01T18:05:11.771Z,41.00
2023-04-01T18:07:59.976Z,32.10
2023-04-01T18:10:42.587Z,67.70
2023-04-01T18:13:36.916Z,190.30
2023-04-01T18:16:26.242Z,107.40
2023-04-01T18:19:05.073Z,111.60
2023-04-01T18:21:45.994Z,112.60
2023-04-01T18:24:24.821Z,199.80
2023-04-01T18:27:06.952Z,62.00
2023-04-01T18:29:49.960Z,29.00
2023-04-01T18:32:38.000Z,85.00
2023-04-01T18:35:23.593Z,30.00
2023-04-01T18:40:36.557Z,30.90
2023-04-01T18:43:26.061Z,32.20
2023-04-01T18:46:03.191Z,49.70
2023-04-01T18:48:54.556Z,91.90
2023-04-01T18:51:37.064Z,48.40
2023-04-01T18:54:17.677Z,25.10
2023-04-01T18:56:49.966Z,24.00
2023-04-01T18:59:29.801Z,33.30
2023-04-01T19:02:08.304Z,31.90
2023-04-01T19:04:45.795Z,39.40
2023-04-01T19:07:44.220Z,30.80
2023-04-01T19:10:26.915Z,16.10
2023-04-01T19:13:14.022Z,16.00
2023-04-01T19:15:52.355Z,18.20
2023-04-01T19:18:57.414Z,17.80
2023-04-01T19:21:36.142Z,29.60
2023-04-01T19:24:46.700Z,25.00
2023-04-01T19:27:28.623Z,19.30
2023-04-01T19:30:19.646Z,17.80
2023-04-01T19:33:03.810Z,13.70
2023-04-01T19:35:45.901Z,331.60
2023-04-01T19:38:28.750Z,551.70
2023-04-01T19:41:10.034Z,356.70
2023-04-01T19:43:58.402Z,153.20
2023-04-01T19:46:35.567Z,129.30
2023-04-01T19:49:23.917Z,114.90
2023-04-01T19:52:04.564Z,261.40
2023-04-01T19:54:44.800Z,166.80
2023-04-01T19:57:28.938Z,224.30
2023-04-01T20:00:09.799Z,217.60
2023-04-01T20:02:57.714Z,208.50
2023-04-01T20:05:37.601Z,209.70
2023-04-01T20:08:19.254Z,99.20
2023-04-01T20:11:04.163Z,205.00
2023-04-01T20:13:50.185Z,141.20
2023-04-01T20:16:23.639Z,106.00
2023-04-01T20:19:00.748Z,108.20
2023-04-01T20:21:38.661Z,91.60
2023-04-01T20:24:23.003Z,110.60
2023-04-01T20:27:06.344Z,131.20
2023-04-01T20:29:58.734Z,74.10
2023-04-01T20:32:56.123Z,29.40
2023-04-01T20:35:42.098Z,73.00
2023-04-01T20:38:51.221Z,53.70
2023-04-01T20:41:29.351Z,38.30
2023-04-01T20:44:12.137Z,50.30
2023-04-01T20:46:56.113Z,28.50
2023-04-01T20:49:52.170Z,31.50
2023-04-01T20:52:39.425Z,45.00
2023-04-01T20:55:57.618Z,29.20
2023-04-01T20:58:37.548Z,24.90
2023-04-01T21:01:23.303Z,138.80
2023-04-01T21:04:05.109Z,47.80
2023-04-01T21:06:54.710Z,182.30
2023-04-01T21:09:39.389Z,166.40
2023-04-01T21:12:28.589Z,108.30
2023-04-01T21:15:29.778Z,111.60
2023-04-01T21:18:14.342Z,93.90
2023-04-01T21:20:59.104Z,86.80
2023-04-01T21:23:45.508Z,43.70
2023-04-01T21:26:44.299Z,28.80
2023-04-01T21:29:53.881Z,12.30
2023-04-01T21:32:51.451Z,19.50
2023-04-01T21:35:38.165Z,15.10
2023-04-01T21:38:32.123Z,17.20
2023-04-01T21:41:26.571Z,24.20
2023-04-01T21:44:37.493Z,9.00
2023-04-01T21:48:00.599Z,18.60
2023-04-01T21:51:14.267Z,15.70
2023-04-01T21:54:21.739Z,18.90
2023-04-01T21:57:16.960Z,8.80
2023-04-01T22:00:25.161Z,51.10
2023-04-01T22:03:31.393Z,9.80
2023-04-01T22:06:25.002Z,18.40
2023-04-01T22:09:06.543Z,18.00
2023-04-01T22:11:50.794Z,21.70
2023-04-01T22:14:29.956Z,20.70
2023-04-01T22:17:09.134Z,15.70
2023-04-01T22:19:51.888Z,8.00
2023-04-01T22:22:30.943Z,8.00
2023-04-01T22:25:12.233Z,11.50
2023-04-01T22:27:49.477Z,13.30
2023-04-01T22:30:25.704Z,24.20
2023-04-01T22:33:07.636Z,120.00
2023-04-01T22:35:48.909Z,57.90
2023-04-01T22:38:34.800Z,28.50
2023-04-01T22:41:13.618Z,102.60
2023-04-01T22:43:47.371Z,67.30
2023-04-01T22:46:44.963Z,30.60
2023-04-01T22:49:24.150Z,31.70
2023-04-01T22:52:04.917Z,12.00
2023-04-01T22:54:42.596Z,17.40
2023-04-01T22:57:22.284Z,106.70
2023-04-01T23:00:09.123Z,41.20
2023-04-01T23:02:44.768Z,16.80
2023-04-01T23:05:21.369Z,39.90
2023-04-01T23:08:02.812Z,34.30
2023-04-01T23:10:44.680Z,18.50
2023-04-01T23:13:22.726Z,7.70
2023-04-01T23:15:56.229Z,7.10
2023-04-01T23:18:32.419Z,31.80
2023-04-01T23:21:18.014Z,33.40
2023-04-01T23:24:03.193Z,21.30
2023-04-01T23:26:41.853Z,17.00
2023-04-01T23:29:18.382Z,20.70
2023-04-01T23:31:58.745Z,15.40
2023-04-01T23:34:33.403Z,8.20
2023-04-01T23:37:12.725Z,11.70
2023-04-01T23:39:48.006Z,13.70
2023-04-01T23:42:24.502Z,6.70
2023-04-01T23:44:59.729Z,19.50
2023-04-01T23:47:35.393Z,41.00
2023-04-01T23:50:13.296Z,20.20
2023-04-01T23:52:49.197Z,13.00
2023-04-01T23:55:28.274Z,14.60
2023-04-01T23:58:24.059Z,22.30
